createdAt,value
2018-06-04T00:00:15.794Z,50.20
2018-06-04T00:02:44.262Z,50.40
2018-06-04T00:05:12.697Z,52.30
2018-06-04T00:07:41.146Z,50.13
2018-06-04T00:10:09.557Z,47.43
2018-06-04T00:12:37.989Z,49.17
2018-06-04T00:15:06.693Z,50.50
2018-06-04T00:17:35.107Z,49.70
2018-06-04T00:20:03.577Z,49.27
2018-06-04T00:22:32.036Z,48.60
2018-06-04T00:25:00.462Z,49.30
2018-06-04T00:27:28.864Z,49.33
2018-06-04T00:29:57.330Z,46.33
2018-06-04T00:32:25.809Z,48.10
2018-06-04T00:34:54.247Z,45.40
2018-06-04T00:37:22.665Z,47.43
2018-06-04T00:39:51.145Z,47.50
2018-06-04T00:42:19.713Z,47.23
2018-06-04T00:44:48.177Z,47.87
2018-06-04T00:47:16.706Z,48.37
2018-06-04T00:49:45.171Z,44.60
2018-06-04T00:52:13.593Z,47.60
2018-06-04T00:54:42.072Z,45.60
2018-06-04T00:57:10.553Z,46.00
2018-06-04T00:59:39.020Z,44.70
2018-06-04T01:02:08.278Z,45.93
2018-06-04T01:04:36.720Z,47.10
2018-06-04T01:07:05.205Z,47.37
2018-06-04T01:09:33.659Z,48.23
2018-06-04T01:12:02.092Z,46.93
2018-06-04T01:14:30.614Z,50.97
2018-06-04T01:16:59.092Z,49.80
2018-06-04T01:19:27.536Z,48.40
2018-06-04T01:21:56.097Z,54.40
2018-06-04T01:24:24.538Z,53.00
2018-06-04T01:26:52.984Z,53.73
2018-06-04T01:29:21.468Z,50.47
2018-06-04T01:31:49.897Z,52.07
2018-06-04T01:34:18.317Z,50.77
2018-06-04T01:36:46.765Z,52.30
2018-06-04T01:39:15.322Z,51.77
2018-06-04T01:41:43.812Z,52.87
2018-06-04T01:44:12.284Z,50.60
2018-06-04T01:46:40.800Z,49.00
2018-06-04T01:49:09.263Z,53.77
2018-06-04T01:51:37.739Z,51.87
2018-06-04T01:54:06.245Z,53.07
2018-06-04T01:56:34.798Z,53.83
2018-06-04T01:59:03.295Z,52.40
2018-06-04T02:01:31.741Z,52.40
2018-06-04T02:04:00.228Z,54.87
2018-06-04T02:06:28.680Z,52.07
2018-06-04T02:08:57.195Z,49.27
2018-06-04T02:11:25.678Z,51.53
2018-06-04T02:13:54.110Z,50.67
2018-06-04T02:16:22.215Z,51.13
2018-06-04T02:18:50.634Z,50.97
2018-06-04T02:21:19.070Z,54.00
2018-06-04T02:23:47.537Z,52.00
2018-06-04T02:26:16.112Z,52.47
2018-06-04T02:28:44.545Z,53.17
2018-06-04T02:31:13.291Z,55.77
2018-06-04T02:33:41.753Z,55.03
2018-06-04T02:36:10.266Z,53.93
2018-06-04T02:38:38.708Z,54.53
2018-06-04T02:41:07.196Z,50.87
2018-06-04T02:43:35.884Z,51.67
2018-06-04T02:46:04.440Z,52.47
2018-06-04T02:48:34.682Z,52.47
2018-06-04T02:51:03.121Z,50.60
2018-06-04T02:53:33.060Z,53.47
2018-06-04T02:56:01.511Z,51.70
2018-06-04T02:58:30.895Z,51.53
2018-06-04T03:01:00.157Z,50.30
2018-06-04T03:03:29.871Z,52.40
2018-06-04T03:05:59.188Z,52.13
2018-06-04T03:08:29.723Z,55.70
2018-06-04T03:10:58.184Z,53.20
2018-06-04T03:13:27.475Z,53.17
2018-06-04T03:15:56.485Z,52.30
2018-06-04T03:18:25.811Z,51.00
2018-06-04T03:20:54.268Z,49.30
2018-06-04T03:23:22.746Z,50.03
2018-06-04T03:25:51.218Z,49.37
2018-06-04T03:28:19.676Z,49.97
2018-06-04T03:30:48.107Z,45.53
2018-06-04T03:33:16.591Z,48.63
2018-06-04T03:35:45.009Z,49.73
2018-06-04T03:38:13.489Z,54.03
2018-06-04T03:40:41.969Z,53.73
2018-06-04T03:43:10.394Z,60.87
2018-06-04T03:45:38.833Z,59.70
2018-06-04T03:48:07.278Z,51.93
2018-06-04T03:50:35.749Z,51.73
2018-06-04T03:53:04.161Z,49.67
2018-06-04T03:55:32.650Z,51.47
2018-06-04T03:58:01.067Z,48.93
2018-06-04T04:00:29.525Z,53.60
2018-06-04T04:02:58.123Z,47.50
2018-06-04T04:05:26.709Z,49.47
2018-06-04T04:07:55.500Z,50.00
2018-06-04T04:10:23.952Z,49.00
2018-06-04T04:12:52.469Z,47.37
2018-06-04T04:15:21.071Z,47.87
2018-06-04T04:17:49.552Z,48.53
2018-06-04T04:20:18.015Z,48.13
2018-06-04T04:22:46.468Z,45.60
2018-06-04T04:25:14.897Z,45.30
2018-06-04T04:27:43.370Z,44.20
2018-06-04T04:30:11.873Z,43.33
2018-06-04T04:32:40.321Z,45.60
2018-06-04T04:35:08.796Z,47.47
2018-06-04T04:37:37.281Z,42.30
2018-06-04T04:40:05.977Z,43.30
2018-06-04T04:42:34.501Z,43.63
2018-06-04T04:45:03.016Z,43.90
2018-06-04T04:47:31.460Z,40.47
2018-06-04T04:49:59.940Z,43.07
2018-06-04T04:52:28.431Z,42.20
2018-06-04T04:54:56.958Z,42.53
2018-06-04T04:57:25.638Z,43.33
2018-06-04T04:59:54.128Z,42.43
2018-06-04T05:02:22.710Z,41.73
2018-06-04T05:04:51.375Z,42.20
2018-06-04T05:07:19.808Z,43.63
2018-06-04T05:09:48.244Z,41.10
2018-06-04T05:12:16.705Z,41.37
2018-06-04T05:14:45.279Z,41.87
2018-06-04T05:17:13.847Z,37.83
2018-06-04T05:19:42.364Z,39.83
2018-06-04T05:22:10.775Z,40.03
2018-06-04T05:24:39.408Z,41.07
2018-06-04T05:27:08.043Z,38.33
2018-06-04T05:29:36.508Z,37.97
2018-06-04T05:32:14.989Z,38.87
2018-06-04T05:34:43.645Z,38.73
2018-06-04T05:37:13.306Z,38.57
2018-06-04T05:39:41.760Z,35.77
2018-06-04T05:42:10.270Z,36.73
2018-06-04T05:44:38.744Z,34.70
2018-06-04T05:47:07.247Z,35.73
2018-06-04T05:49:35.721Z,35.53
2018-06-04T05:52:04.175Z,34.83
2018-06-04T05:54:32.635Z,36.90
2018-06-04T05:57:01.078Z,34.57
2018-06-04T05:59:29.559Z,33.13
2018-06-04T06:01:58.210Z,36.63
2018-06-04T06:04:26.762Z,35.67
2018-06-04T06:06:55.245Z,32.53
2018-06-04T06:09:23.674Z,32.80
2018-06-04T06:11:52.158Z,34.10
2018-06-04T06:14:20.692Z,34.38
2018-06-04T06:16:49.148Z,33.53
2018-06-04T06:19:17.613Z,34.75
2018-06-04T06:21:46.052Z,37.03
2018-06-04T06:24:14.489Z,33.92
2018-06-04T06:26:42.977Z,33.55
2018-06-04T06:29:11.982Z,31.42
2018-06-04T06:31:40.544Z,31.52
2018-06-04T06:34:08.964Z,32.05
2018-06-04T06:36:50.018Z,31.23
2018-06-04T06:39:18.530Z,28.80
2018-06-04T06:41:47.029Z,33.73
2018-06-04T06:44:15.763Z,32.00
2018-06-04T06:46:46.577Z,34.63
2018-06-04T06:49:15.200Z,32.93
2018-06-04T06:51:44.157Z,31.40
2018-06-04T06:54:12.826Z,29.42
2018-06-04T06:56:41.290Z,32.65
2018-06-04T06:59:09.729Z,33.60
2018-06-04T07:01:38.225Z,31.00
2018-06-04T07:04:06.814Z,29.80
2018-06-04T07:06:35.290Z,29.55
2018-06-04T07:09:04.048Z,30.77
2018-06-04T07:11:32.701Z,32.73
2018-06-04T07:14:01.185Z,34.50
2018-06-04T07:16:29.612Z,29.42
2018-06-04T07:18:58.137Z,30.97
2018-06-04T07:21:26.708Z,30.57
2018-06-04T07:23:55.406Z,28.87
2018-06-04T07:26:23.894Z,29.95
2018-06-04T07:28:52.461Z,28.83
2018-06-04T07:31:21.005Z,29.30
2018-06-04T07:33:49.744Z,30.32
2018-06-04T07:36:18.544Z,26.42
2018-06-04T07:38:47.149Z,28.25
2018-06-04T07:41:16.091Z,27.85
2018-06-04T07:43:44.537Z,25.02
2018-06-04T07:46:13.001Z,24.80
2018-06-04T07:48:41.496Z,23.15
2018-06-04T07:51:10.006Z,24.20
2018-06-04T07:53:38.510Z,21.05
2018-06-04T07:56:07.009Z,24.57
2018-06-04T07:58:35.494Z,23.25
2018-06-04T08:01:03.963Z,23.75
2018-06-04T08:03:32.401Z,22.45
2018-06-04T08:06:00.961Z,25.77
2018-06-04T08:08:33.025Z,25.27
2018-06-04T08:11:01.502Z,23.95
2018-06-04T08:13:29.983Z,24.67
2018-06-04T08:15:58.458Z,23.90
2018-06-04T08:18:26.949Z,26.25
2018-06-04T08:20:55.704Z,23.70
2018-06-04T08:23:24.341Z,23.50
2018-06-04T08:25:52.772Z,25.52
2018-06-04T08:28:21.232Z,25.50
2018-06-04T08:30:50.148Z,23.50
2018-06-04T08:33:18.613Z,24.05
2018-06-04T08:35:47.158Z,24.07
2018-06-04T08:38:15.706Z,23.83
2018-06-04T08:40:44.174Z,22.05
2018-06-04T08:43:12.605Z,20.55
2018-06-04T08:45:41.151Z,20.00
2018-06-04T08:48:09.600Z,23.02
2018-06-04T08:50:38.100Z,22.10
2018-06-04T08:53:06.559Z,20.97
2018-06-04T08:55:34.695Z,21.20
2018-06-04T08:58:03.164Z,22.60
2018-06-04T09:00:31.597Z,18.67
2018-06-04T09:03:00.022Z,21.05
2018-06-04T09:05:28.541Z,19.90
2018-06-04T09:07:57.036Z,19.57
2018-06-04T09:10:25.637Z,21.02
2018-06-04T09:12:54.193Z,20.77
2018-06-04T09:15:22.720Z,21.05
2018-06-04T09:17:51.130Z,19.35
2018-06-04T09:20:19.558Z,18.00
2018-06-04T09:22:47.665Z,18.73
2018-06-04T09:25:16.130Z,19.45
2018-06-04T09:27:44.560Z,17.37
2018-06-04T09:30:12.989Z,17.60
2018-06-04T09:32:41.493Z,19.57
2018-06-04T09:35:09.967Z,18.40
2018-06-04T09:37:38.425Z,17.67
2018-06-04T09:40:06.889Z,19.85
2018-06-04T09:42:35.493Z,17.77
2018-06-04T09:45:03.998Z,17.02
2018-06-04T09:47:32.581Z,18.75
2018-06-04T09:50:01.238Z,15.98
2018-06-04T09:52:29.937Z,16.97
2018-06-04T09:54:58.489Z,17.50
2018-06-04T09:57:27.257Z,17.27
2018-06-04T09:59:56.331Z,16.27
2018-06-04T10:02:25.847Z,17.00
2018-06-04T10:04:54.413Z,14.58
2018-06-04T10:07:23.550Z,16.37
2018-06-04T10:09:52.368Z,15.95
2018-06-04T10:12:21.060Z,16.82
2018-06-04T10:14:50.259Z,17.55
2018-06-04T10:17:19.739Z,17.85
2018-06-04T10:19:48.610Z,15.05
2018-06-04T10:22:17.185Z,14.85
2018-06-04T10:24:45.868Z,17.50
2018-06-04T10:27:14.524Z,15.50
2018-06-04T10:29:43.193Z,15.32
2018-06-04T10:32:11.689Z,14.95
2018-06-04T10:34:40.247Z,14.93
2018-06-04T10:37:09.500Z,16.23
2018-06-04T10:39:38.054Z,14.15
2018-06-04T10:42:06.542Z,16.02
2018-06-04T10:44:35.043Z,15.40
2018-06-04T10:47:07.081Z,14.80
2018-06-04T10:49:35.487Z,14.55
2018-06-04T10:52:03.971Z,14.50
2018-06-04T10:54:32.424Z,15.10
2018-06-04T10:57:00.958Z,13.95
2018-06-04T10:59:29.475Z,14.30
2018-06-04T11:01:58.028Z,15.63
2018-06-04T11:04:26.675Z,15.43
2018-06-04T11:06:55.321Z,18.32
2018-06-04T11:09:23.930Z,18.48
2018-06-04T11:11:52.471Z,18.85
2018-06-04T11:14:20.884Z,20.70
2018-06-04T11:16:49.341Z,19.07
2018-06-04T11:19:17.907Z,20.10
2018-06-04T11:21:46.375Z,20.95
2018-06-04T11:24:14.836Z,19.42
2018-06-04T11:26:43.373Z,18.30
2018-06-04T11:29:11.843Z,19.62
2018-06-04T11:31:40.338Z,17.80
2018-06-04T11:34:08.890Z,20.30
2018-06-04T11:36:37.432Z,18.95
2018-06-04T11:39:08.013Z,16.85
2018-06-04T11:41:36.717Z,18.55
2018-06-04T11:44:06.187Z,17.45
2018-06-04T11:46:34.609Z,19.40
2018-06-04T11:49:03.108Z,19.02
2018-06-04T11:51:31.698Z,20.90
2018-06-04T11:54:00.138Z,16.42
2018-06-04T11:56:28.738Z,18.45
2018-06-04T11:58:57.616Z,16.77
2018-06-04T12:01:26.050Z,17.10
2018-06-04T12:03:54.888Z,18.95
2018-06-04T12:06:23.388Z,18.65
2018-06-04T12:08:51.982Z,16.30
2018-06-04T12:11:20.510Z,16.40
2018-06-04T12:13:49.035Z,14.55
2018-06-04T12:16:17.869Z,17.27
2018-06-04T12:18:46.346Z,16.37
2018-06-04T12:21:14.863Z,12.50
2018-06-04T12:23:43.341Z,16.87
2018-06-04T12:26:11.945Z,16.48
2018-06-04T12:28:40.995Z,16.27
2018-06-04T12:31:09.567Z,15.32
2018-06-04T12:33:44.699Z,16.40
2018-06-04T12:36:13.325Z,16.12
2018-06-04T12:38:41.838Z,14.28
2018-06-04T12:41:10.374Z,14.33
2018-06-04T12:43:38.925Z,13.95
2018-06-04T12:46:07.576Z,16.45
2018-06-04T12:48:36.067Z,14.83
2018-06-04T12:51:04.630Z,14.87
2018-06-04T12:53:33.315Z,14.50
2018-06-04T12:56:01.860Z,14.00
2018-06-04T12:58:30.392Z,12.82
2018-06-04T13:00:59.024Z,14.55
2018-06-04T13:03:27.647Z,11.73
2018-06-04T13:05:56.128Z,11.75
2018-06-04T13:08:24.616Z,12.75
2018-06-04T13:10:53.097Z,11.85
2018-06-04T13:13:21.588Z,13.72
2018-06-04T13:15:50.069Z,10.68
2018-06-04T13:18:18.640Z,11.25
2018-06-04T13:20:47.128Z,11.38
2018-06-04T13:23:15.681Z,10.08
2018-06-04T13:25:44.087Z,9.85
2018-06-04T13:28:12.602Z,10.20
2018-06-04T13:30:41.294Z,12.63
2018-06-04T13:33:09.773Z,12.37
2018-06-04T13:35:38.219Z,9.88
2018-06-04T13:38:06.740Z,12.58
2018-06-04T13:40:35.193Z,10.68
2018-06-04T13:43:03.637Z,11.08
2018-06-04T13:45:32.287Z,10.28
2018-06-04T13:48:00.768Z,12.60
2018-06-04T13:50:29.251Z,10.70
2018-06-04T13:52:57.773Z,10.90
2018-06-04T13:55:26.224Z,11.43
2018-06-04T13:57:54.714Z,12.07
2018-06-04T14:00:23.153Z,17.30
2018-06-04T14:02:51.620Z,17.37
2018-06-04T14:05:20.212Z,23.12
2018-06-04T14:07:48.737Z,24.50
2018-06-04T14:10:17.302Z,23.20
2018-06-04T14:12:45.825Z,21.75
2018-06-04T14:15:14.289Z,20.25
2018-06-04T14:17:42.837Z,19.98
2018-06-04T14:20:11.386Z,17.77
2018-06-04T14:22:40.107Z,23.22
2018-06-04T14:25:08.589Z,22.58
2018-06-04T14:27:37.164Z,22.85
2018-06-04T14:30:05.636Z,28.37
2018-06-04T14:32:34.173Z,37.63
2018-06-04T14:35:02.624Z,32.98
2018-06-04T14:37:31.148Z,33.37
2018-06-04T14:39:59.714Z,29.57
2018-06-04T14:42:28.332Z,32.85
2018-06-04T14:44:56.820Z,30.30
2018-06-04T14:47:25.336Z,28.00
2018-06-04T14:49:53.823Z,26.27
2018-06-04T14:52:22.128Z,29.10
2018-06-04T14:54:50.607Z,26.67
2018-06-04T14:57:19.324Z,30.27
2018-06-04T14:59:48.324Z,28.07
2018-06-04T15:02:16.825Z,29.18
2018-06-04T15:04:45.280Z,32.10
2018-06-04T15:07:13.761Z,35.47
2018-06-04T15:09:42.294Z,35.38
2018-06-04T15:12:10.767Z,32.30
2018-06-04T15:14:39.257Z,35.87
2018-06-04T15:17:07.758Z,37.53
2018-06-04T15:19:36.310Z,33.97
2018-06-04T15:22:04.849Z,34.07
2018-06-04T15:24:33.325Z,33.70
2018-06-04T15:27:01.784Z,34.23
2018-06-04T15:29:30.328Z,32.27
2018-06-04T15:31:58.805Z,32.33
2018-06-04T15:34:28.289Z,36.20
2018-06-04T15:36:56.920Z,27.70
2018-06-04T15:39:25.445Z,34.43
2018-06-04T15:41:53.920Z,30.93
2018-06-04T15:44:22.378Z,35.17
2018-06-04T15:46:51.120Z,33.27
2018-06-04T15:49:19.759Z,31.17
2018-06-04T15:51:48.509Z,29.87
2018-06-04T15:54:16.989Z,32.90
2018-06-04T15:56:45.408Z,33.93
2018-06-04T15:59:13.863Z,32.17
2018-06-04T16:01:42.673Z,29.53
2018-06-04T16:04:11.221Z,26.63
2018-06-04T16:06:39.811Z,32.27
2018-06-04T16:09:08.668Z,31.30
2018-06-04T16:11:37.085Z,31.67
2018-06-04T16:14:05.666Z,33.87
2018-06-04T16:16:34.157Z,30.17
2018-06-04T16:19:02.613Z,32.60
2018-06-04T16:21:31.118Z,35.97
2018-06-04T16:23:59.739Z,31.77
2018-06-04T16:26:28.191Z,32.10
2018-06-04T16:28:56.675Z,32.70
2018-06-04T16:31:25.175Z,30.43
2018-06-04T16:33:53.736Z,29.57
2018-06-04T16:36:22.288Z,27.57
2018-06-04T16:38:50.933Z,31.70
2018-06-04T16:41:19.557Z,31.97
2018-06-04T16:43:47.955Z,32.97
2018-06-04T16:46:16.471Z,32.10
2018-06-04T16:48:45.015Z,26.90
2018-06-04T16:51:13.631Z,33.03
2018-06-04T16:53:42.569Z,31.30
2018-06-04T16:56:11.038Z,32.47
2018-06-04T16:58:39.750Z,31.40
2018-06-04T17:01:08.231Z,28.00
2018-06-04T17:03:36.686Z,31.30
2018-06-04T17:06:05.184Z,31.07
2018-06-04T17:08:33.627Z,33.83
2018-06-04T17:11:01.780Z,33.97
2018-06-04T17:13:30.375Z,34.00
2018-06-04T17:15:58.849Z,30.87
2018-06-04T17:18:27.264Z,33.97
2018-06-04T17:20:55.656Z,32.80
2018-06-04T17:23:24.146Z,32.03
2018-06-04T17:25:52.617Z,29.83
2018-06-04T17:28:21.275Z,31.27
2018-06-04T17:30:49.849Z,36.80
2018-06-04T17:33:18.536Z,35.67
2018-06-04T17:35:47.141Z,35.00
2018-06-04T17:38:15.692Z,32.20
2018-06-04T17:40:44.229Z,35.90
2018-06-04T17:43:12.681Z,33.43
2018-06-04T17:45:41.469Z,31.47
2018-06-04T17:48:10.168Z,34.83
2018-06-04T17:50:38.828Z,33.27
2018-06-04T17:53:08.374Z,30.20
2018-06-04T17:55:36.912Z,34.00
2018-06-04T17:58:05.593Z,35.80
2018-06-04T18:00:34.329Z,31.90
2018-06-04T18:03:03.000Z,31.67
2018-06-04T18:05:31.457Z,31.87
2018-06-04T18:08:00.196Z,31.40
2018-06-04T18:10:28.865Z,31.10
2018-06-04T18:12:58.701Z,30.00
2018-06-04T18:15:27.883Z,29.83
2018-06-04T18:17:57.094Z,29.63
2018-06-04T18:20:25.705Z,30.13
2018-06-04T18:22:54.176Z,29.90
2018-06-04T18:25:22.751Z,31.03
2018-06-04T18:27:51.155Z,31.90
2018-06-04T18:30:20.936Z,28.63
2018-06-04T18:32:49.381Z,28.40
2018-06-04T18:35:17.937Z,28.00
2018-06-04T18:37:46.701Z,30.20
2018-06-04T18:40:14.972Z,27.63
2018-06-04T18:42:43.495Z,22.17
2018-06-04T18:45:12.588Z,25.30
2018-06-04T18:47:41.186Z,22.63
2018-06-04T18:50:10.276Z,26.73
2018-06-04T18:52:39.086Z,28.53
2018-06-04T18:55:10.161Z,27.67
2018-06-04T18:57:38.764Z,23.10
2018-06-04T19:00:07.430Z,28.67
2018-06-04T19:02:37.703Z,27.80
2018-06-04T19:05:06.456Z,27.10
2018-06-04T19:07:35.684Z,23.67
2018-06-04T19:10:05.117Z,27.83
2018-06-04T19:12:34.968Z,24.60
2018-06-04T19:15:03.860Z,28.43
2018-06-04T19:17:33.263Z,27.50
2018-06-04T19:20:02.633Z,29.00
2018-06-04T19:22:31.886Z,27.53
2018-06-04T19:25:00.839Z,28.20
2018-06-04T19:27:30.421Z,29.17
2018-06-04T19:30:00.190Z,28.47
2018-06-04T19:32:29.141Z,26.00
2018-06-04T19:34:57.786Z,30.77
2018-06-04T19:37:26.361Z,27.27
2018-06-04T19:39:55.154Z,29.70
2018-06-04T19:42:24.611Z,27.63
2018-06-04T19:44:53.995Z,31.40
2018-06-04T19:47:24.045Z,28.10
2018-06-04T19:49:53.430Z,27.83
2018-06-04T19:52:22.042Z,30.13
2018-06-04T19:54:51.205Z,32.17
2018-06-04T19:57:20.117Z,29.90
2018-06-04T19:59:49.417Z,32.30
2018-06-04T20:02:18.710Z,28.57
2018-06-04T20:04:47.551Z,31.10
2018-06-04T20:07:16.124Z,30.83
2018-06-04T20:09:44.882Z,31.10
2018-06-04T20:12:13.448Z,31.40
2018-06-04T20:14:42.910Z,32.27
2018-06-04T20:17:12.331Z,33.10
2018-06-04T20:19:43.421Z,30.83
2018-06-04T20:22:15.112Z,28.63
2018-06-04T20:24:44.188Z,30.73
2018-06-04T20:27:13.952Z,30.07
2018-06-04T20:29:45.224Z,32.90
2018-06-04T20:32:15.312Z,28.93
2018-06-04T20:34:46.667Z,31.93
2018-06-04T20:37:21.499Z,31.67
2018-06-04T20:39:50.451Z,30.97
2018-06-04T20:42:19.021Z,30.03
2018-06-04T20:44:47.851Z,31.17
2018-06-04T20:47:16.038Z,31.07
2018-06-04T20:49:44.269Z,31.67
2018-06-04T20:52:12.679Z,29.87
2018-06-04T20:54:41.648Z,30.20
2018-06-04T20:57:10.247Z,30.70
2018-06-04T20:59:39.166Z,29.03
2018-06-04T21:02:08.306Z,29.17
2018-06-04T21:04:36.818Z,29.23
2018-06-04T21:07:05.577Z,27.47
2018-06-04T21:09:34.141Z,28.47
2018-06-04T21:12:02.671Z,28.00
2018-06-04T21:14:31.247Z,27.67
2018-06-04T21:16:59.795Z,27.60
2018-06-04T21:19:28.234Z,26.17
2018-06-04T21:21:56.710Z,28.37
2018-06-04T21:24:25.167Z,28.40
2018-06-04T21:26:53.820Z,27.57
2018-06-04T21:29:22.283Z,27.37
2018-06-04T21:31:50.894Z,27.30
2018-06-04T21:34:19.340Z,28.10
2018-06-04T21:36:47.909Z,26.47
2018-06-04T21:39:16.515Z,28.63
2018-06-04T21:41:45.077Z,29.80
2018-06-04T21:44:13.584Z,28.03
2018-06-04T21:46:42.195Z,26.80
2018-06-04T21:49:14.921Z,26.93
2018-06-04T21:51:43.373Z,27.37
2018-06-04T21:54:11.841Z,26.97
2018-06-04T21:56:40.394Z,26.37
2018-06-04T21:59:08.926Z,27.00
2018-06-04T22:01:37.953Z,25.20
2018-06-04T22:04:06.481Z,28.00
2018-06-04T22:06:34.974Z,27.83
2018-06-04T22:09:04.364Z,28.67
2018-06-04T22:11:33.217Z,29.13
2018-06-04T22:14:01.857Z,27.27
2018-06-04T22:16:31.224Z,28.30
2018-06-04T22:18:59.804Z,25.87
2018-06-04T22:21:28.771Z,29.77
2018-06-04T22:23:57.322Z,30.60
2018-06-04T22:26:25.792Z,28.23
2018-06-04T22:28:54.562Z,29.30
2018-06-04T22:31:23.068Z,32.27
2018-06-04T22:33:51.528Z,29.67
2018-06-04T22:36:20.753Z,30.27
2018-06-04T22:38:49.250Z,32.00
2018-06-04T22:41:17.998Z,30.77
2018-06-04T22:43:46.884Z,31.37
2018-06-04T22:46:15.401Z,32.87
2018-06-04T22:48:45.146Z,34.67
2018-06-04T22:51:13.903Z,34.33
2018-06-04T22:53:42.684Z,32.37
2018-06-04T22:56:11.163Z,34.00
2018-06-04T22:58:40.243Z,35.67
2018-06-04T23:01:08.704Z,32.27
2018-06-04T23:03:37.359Z,28.23
2018-06-04T23:06:05.912Z,34.63
2018-06-04T23:08:34.408Z,33.90
2018-06-04T23:11:03.173Z,35.80
2018-06-04T23:13:32.401Z,36.17
2018-06-04T23:16:00.879Z,37.00
2018-06-04T23:18:29.861Z,38.10
2018-06-04T23:20:58.476Z,34.53
2018-06-04T23:23:26.888Z,36.47
2018-06-04T23:25:55.435Z,37.90
2018-06-04T23:28:23.881Z,37.80
2018-06-04T23:30:52.352Z,38.43
2018-06-04T23:33:20.855Z,37.10
2018-06-04T23:35:49.366Z,39.40
2018-06-04T23:38:17.954Z,39.30
2018-06-04T23:40:46.436Z,40.67
2018-06-04T23:43:14.849Z,38.17
2018-06-04T23:45:43.402Z,37.73
2018-06-04T23:48:11.865Z,39.40
2018-06-04T23:50:40.352Z,40.60
2018-06-04T23:53:08.791Z,40.17
2018-06-04T23:55:37.250Z,41.67
2018-06-04T23:58:05.753Z,41.13
